sensor_id;sensor_type;location;lat;lon;timestamp;pressure;altitude;pressure_sealevel;temperature;humidity
61761;BME280;47664;51.660;-0.100;2023-05-19T00:01:13;102087.74;;;12.29;50.67
61761;BME280;47664;51.660;-0.100;2023-05-19T00:03:49;102086.59;;;11.92;51.08
61761;BME280;47664;51.660;-0.100;2023-05-19T00:06:18;102082.62;;;12.05;51.28
61761;BME280;47664;51.660;-0.100;2023-05-19T00:08:49;102080.27;;;12.17;51.29
61761;BME280;47664;51.660;-0.100;2023-05-19T00:11:16;102077.86;;;11.85;51.49
61761;BME280;47664;51.660;-0.100;2023-05-19T00:15:12;102075.04;;;12.05;51.87
61761;BME280;47664;51.660;-0.100;2023-05-19T00:17:39;102075.41;;;11.63;52.68
61761;BME280;47664;51.660;-0.100;2023-05-19T00:20:08;102075.73;;;12.01;52.16
61761;BME280;47664;51.660;-0.100;2023-05-19T00:22:35;102079.21;;;11.66;52.68
61761;BME280;47664;51.660;-0.100;2023-05-19T00:25:04;102080.37;;;11.93;51.90
61761;BME280;47664;51.660;-0.100;2023-05-19T00:27:31;102080.63;;;11.17;50.95
61761;BME280;47664;51.660;-0.100;2023-05-19T00:29:58;102084.02;;;12.35;50.61
61761;BME280;47664;51.660;-0.100;2023-05-19T00:32:26;102085.04;;;11.74;51.37
61761;BME280;47664;51.660;-0.100;2023-05-19T00:34:53;102086.50;;;12.11;51.09
61761;BME280;47664;51.660;-0.100;2023-05-19T00:37:21;102087.47;;;12.17;51.23
61761;BME280;47664;51.660;-0.100;2023-05-19T00:39:48;102082.84;;;12.03;51.38
61761;BME280;47664;51.660;-0.100;2023-05-19T00:42:15;102084.97;;;11.95;51.23
61761;BME280;47664;51.660;-0.100;2023-05-19T00:44:43;102086.23;;;12.02;51.68
61761;BME280;47664;51.660;-0.100;2023-05-19T00:47:11;102084.32;;;11.63;51.89
61761;BME280;47664;51.660;-0.100;2023-05-19T00:49:39;102081.06;;;11.58;52.46
61761;BME280;47664;51.660;-0.100;2023-05-19T00:52:07;102076.75;;;11.72;52.39
61761;BME280;47664;51.660;-0.100;2023-05-19T00:54:35;102075.05;;;11.36;52.64
61761;BME280;47664;51.660;-0.100;2023-05-19T00:57:03;102074.41;;;12.04;52.00
61761;BME280;47664;51.660;-0.100;2023-05-19T00:59:30;102073.64;;;11.79;52.36
61761;BME280;47664;51.660;-0.100;2023-05-19T01:01:58;102075.34;;;11.94;52.14
61761;BME280;47664;51.660;-0.100;2023-05-19T01:04:26;102075.51;;;11.01;52.41
61761;BME280;47664;51.660;-0.100;2023-05-19T01:06:53;102075.35;;;11.76;52.42
61761;BME280;47664;51.660;-0.100;2023-05-19T01:09:21;102077.77;;;11.81;52.15
61761;BME280;47664;51.660;-0.100;2023-05-19T01:11:48;102081.63;;;12.23;51.62
61761;BME280;47664;51.660;-0.100;2023-05-19T01:14:17;102084.83;;;11.14;52.53
61761;BME280;47664;51.660;-0.100;2023-05-19T01:16:53;102083.38;;;11.38;52.96
61761;BME280;47664;51.660;-0.100;2023-05-19T01:19:41;102086.60;;;11.77;52.48
61761;BME280;47664;51.660;-0.100;2023-05-19T01:22:34;102086.69;;;10.83;52.28
61761;BME280;47664;51.660;-0.100;2023-05-19T01:25:23;102077.72;;;12.03;51.81
61761;BME280;47664;51.660;-0.100;2023-05-19T01:28:09;102066.24;;;12.04;52.61
61761;BME280;47664;51.660;-0.100;2023-05-19T01:30:42;102055.57;;;10.52;54.61
61761;BME280;47664;51.660;-0.100;2023-05-19T01:33:12;102054.38;;;10.98;54.73
61761;BME280;47664;51.660;-0.100;2023-05-19T01:35:41;102063.70;;;10.90;54.90
61761;BME280;47664;51.660;-0.100;2023-05-19T01:38:10;102072.39;;;10.70;54.40
61761;BME280;47664;51.660;-0.100;2023-05-19T01:40:39;102084.33;;;11.33;53.51
61761;BME280;47664;51.660;-0.100;2023-05-19T01:43:10;102083.87;;;11.80;51.98
61761;BME280;47664;51.660;-0.100;2023-05-19T01:45:39;102074.68;;;11.85;52.09
61761;BME280;47664;51.660;-0.100;2023-05-19T01:48:07;102068.93;;;11.87;52.94
61761;BME280;47664;51.660;-0.100;2023-05-19T01:50:35;102077.45;;;11.44;52.87
61761;BME280;47664;51.660;-0.100;2023-05-19T01:53:03;102084.65;;;11.61;52.59
61761;BME280;47664;51.660;-0.100;2023-05-19T01:55:30;102084.28;;;11.62;52.49
61761;BME280;47664;51.660;-0.100;2023-05-19T01:58:09;102076.18;;;11.65;53.05
61761;BME280;47664;51.660;-0.100;2023-05-19T02:00:49;102068.98;;;11.29;53.84
61761;BME280;47664;51.660;-0.100;2023-05-19T02:03:30;102066.81;;;11.40;54.06
61761;BME280;47664;51.660;-0.100;2023-05-19T02:06:06;102064.69;;;11.20;54.41
61761;BME280;47664;51.660;-0.100;2023-05-19T02:08:43;102067.33;;;10.86;53.87
61761;BME280;47664;51.660;-0.100;2023-05-19T02:11:24;102067.07;;;11.02;53.75
61761;BME280;47664;51.660;-0.100;2023-05-19T02:13:55;102061.79;;;11.29;53.96
61761;BME280;47664;51.660;-0.100;2023-05-19T02:16:28;102064.01;;;10.19;53.74
61761;BME280;47664;51.660;-0.100;2023-05-19T02:18:55;102068.97;;;11.59;52.91
61761;BME280;47664;51.660;-0.100;2023-05-19T02:21:23;102070.79;;;11.39;52.95
61761;BME280;47664;51.660;-0.100;2023-05-19T02:23:50;102065.95;;;11.45;52.90
61761;BME280;47664;51.660;-0.100;2023-05-19T02:26:18;102061.53;;;10.80;53.90
61761;BME280;47664;51.660;-0.100;2023-05-19T02:28:45;102058.85;;;11.43;53.81
61761;BME280;47664;51.660;-0.100;2023-05-19T02:31:13;102052.37;;;11.30;53.72
61761;BME280;47664;51.660;-0.100;2023-05-19T02:33:40;102053.87;;;11.55;53.46
61761;BME280;47664;51.660;-0.100;2023-05-19T02:36:08;102048.82;;;11.12;53.73
61761;BME280;47664;51.660;-0.100;2023-05-19T02:38:35;102053.77;;;11.29;53.48
61761;BME280;47664;51.660;-0.100;2023-05-19T02:41:03;102056.69;;;11.12;53.33
61761;BME280;47664;51.660;-0.100;2023-05-19T02:43:31;102059.90;;;11.62;52.81
61761;BME280;47664;51.660;-0.100;2023-05-19T02:45:58;102059.94;;;11.90;52.21
61761;BME280;47664;51.660;-0.100;2023-05-19T02:48:26;102053.58;;;10.89;52.26
61761;BME280;47664;51.660;-0.100;2023-05-19T02:50:53;102051.42;;;11.78;52.88
61761;BME280;47664;51.660;-0.100;2023-05-19T02:53:22;102056.97;;;11.45;52.93
61761;BME280;47664;51.660;-0.100;2023-05-19T02:55:49;102060.20;;;11.67;52.74
61761;BME280;47664;51.660;-0.100;2023-05-19T02:58:16;102056.32;;;11.53;52.06
61761;BME280;47664;51.660;-0.100;2023-05-19T03:00:43;102049.94;;;11.98;51.96
61761;BME280;47664;51.660;-0.100;2023-05-19T03:03:11;102049.85;;;11.83;52.21
61761;BME280;47664;51.660;-0.100;2023-05-19T03:05:39;102055.01;;;12.15;52.12
61761;BME280;47664;51.660;-0.100;2023-05-19T03:08:08;102061.00;;;12.10;51.70
61761;BME280;47664;51.660;-0.100;2023-05-19T03:10:35;102060.33;;;11.65;52.32
61761;BME280;47664;51.660;-0.100;2023-05-19T03:13:03;102059.64;;;11.28;52.67
61761;BME280;47664;51.660;-0.100;2023-05-19T03:15:30;102060.18;;;11.63;52.85
61761;BME280;47664;51.660;-0.100;2023-05-19T03:17:58;102054.47;;;11.44;53.19
61761;BME280;47664;51.660;-0.100;2023-05-19T03:20:25;102055.65;;;10.78;52.98
61761;BME280;47664;51.660;-0.100;2023-05-19T03:22:53;102055.03;;;11.40;52.80
61761;BME280;47664;51.660;-0.100;2023-05-19T03:25:20;102050.65;;;11.32;52.80
61761;BME280;47664;51.660;-0.100;2023-05-19T03:27:48;102045.77;;;11.07;53.30
61761;BME280;47664;51.660;-0.100;2023-05-19T03:30:16;102045.79;;;10.73;53.26
61761;BME280;47664;51.660;-0.100;2023-05-19T03:32:43;102044.39;;;10.81;53.33
61761;BME280;47664;51.660;-0.100;2023-05-19T03:35:11;102045.88;;;11.15;53.29
61761;BME280;47664;51.660;-0.100;2023-05-19T03:37:38;102045.81;;;11.22;53.64
61761;BME280;47664;51.660;-0.100;2023-05-19T03:40:08;102040.21;;;11.33;53.59
61761;BME280;47664;51.660;-0.100;2023-05-19T03:42:35;102039.76;;;11.33;53.17
61761;BME280;47664;51.660;-0.100;2023-05-19T03:45:03;102039.60;;;10.95;53.50
61761;BME280;47664;51.660;-0.100;2023-05-19T03:47:30;102040.05;;;11.07;53.84
61761;BME280;47664;51.660;-0.100;2023-05-19T03:49:57;102038.24;;;10.98;54.51
61761;BME280;47664;51.660;-0.100;2023-05-19T03:52:25;102038.53;;;11.08;54.13
61761;BME280;47664;51.660;-0.100;2023-05-19T03:54:53;102040.51;;;11.07;54.01
61761;BME280;47664;51.660;-0.100;2023-05-19T03:57:20;102041.08;;;11.47;53.83
61761;BME280;47664;51.660;-0.100;2023-05-19T03:59:47;102036.86;;;11.38;53.87
61761;BME280;47664;51.660;-0.100;2023-05-19T04:02:15;102035.54;;;10.80;53.27
61761;BME280;47664;51.660;-0.100;2023-05-19T04:04:43;102036.88;;;11.65;52.71
61761;BME280;47664;51.660;-0.100;2023-05-19T04:07:10;102039.28;;;11.69;52.49
61761;BME280;47664;51.660;-0.100;2023-05-19T04:09:38;102038.82;;;11.89;52.51
61761;BME280;47664;51.660;-0.100;2023-05-19T04:12:05;102039.50;;;12.05;52.07
61761;BME280;47664;51.660;-0.100;2023-05-19T04:14:33;102035.03;;;11.66;51.87
61761;BME280;47664;51.660;-0.100;2023-05-19T04:17:00;102034.72;;;11.88;52.04
61761;BME280;47664;51.660;-0.100;2023-05-19T04:19:28;102037.71;;;11.84;52.28
61761;BME280;47664;51.660;-0.100;2023-05-19T04:21:56;102042.59;;;11.79;52.36
61761;BME280;47664;51.660;-0.100;2023-05-19T04:24:23;102046.80;;;10.80;51.94
61761;BME280;47664;51.660;-0.100;2023-05-19T04:26:50;102053.56;;;11.78;51.45
61761;BME280;47664;51.660;-0.100;2023-05-19T04:29:18;102058.22;;;12.14;51.27
61761;BME280;47664;51.660;-0.100;2023-05-19T04:31:46;102056.79;;;12.07;51.40
61761;BME280;47664;51.660;-0.100;2023-05-19T04:34:14;102054.19;;;11.59;51.46
61761;BME280;47664;51.660;-0.100;2023-05-19T04:36:41;102054.55;;;11.80;51.55
61761;BME280;47664;51.660;-0.100;2023-05-19T04:39:09;102055.67;;;12.14;51.75
61761;BME280;47664;51.660;-0.100;2023-05-19T04:41:37;102052.31;;;12.12;51.81
61761;BME280;47664;51.660;-0.100;2023-05-19T04:44:04;102050.50;;;11.84;51.63
61761;BME280;47664;51.660;-0.100;2023-05-19T04:46:32;102049.78;;;11.82;51.50
61761;BME280;47664;51.660;-0.100;2023-05-19T04:48:59;102047.06;;;12.11;51.76
61761;BME280;47664;51.660;-0.100;2023-05-19T04:51:26;102046.18;;;12.21;51.43
61761;BME280;47664;51.660;-0.100;2023-05-19T04:53:54;102046.09;;;12.68;50.89
61761;BME280;47664;51.660;-0.100;2023-05-19T04:56:22;102047.50;;;11.24;51.12
61761;BME280;47664;51.660;-0.100;2023-05-19T04:58:49;102050.34;;;12.27;50.84
61761;BME280;47664;51.660;-0.100;2023-05-19T05:01:17;102044.96;;;12.37;50.11
61761;BME280;47664;51.660;-0.100;2023-05-19T05:03:45;102044.80;;;12.27;51.25
61761;BME280;47664;51.660;-0.100;2023-05-19T05:06:13;102042.52;;;11.51;51.74
61761;BME280;47664;51.660;-0.100;2023-05-19T05:08:40;102043.54;;;11.17;52.99
61761;BME280;47664;51.660;-0.100;2023-05-19T05:11:09;102045.87;;;11.84;53.21
61761;BME280;47664;51.660;-0.100;2023-05-19T05:13:37;102046.58;;;11.92;53.36
61761;BME280;47664;51.660;-0.100;2023-05-19T05:16:05;102049.80;;;11.48;53.50
61761;BME280;47664;51.660;-0.100;2023-05-19T05:18:33;102046.63;;;10.96;53.75
61761;BME280;47664;51.660;-0.100;2023-05-19T05:21:02;102043.07;;;11.61;53.46
61761;BME280;47664;51.660;-0.100;2023-05-19T05:23:30;102035.73;;;11.14;54.84
61761;BME280;47664;51.660;-0.100;2023-05-19T05:25:58;102035.93;;;11.19;54.49
61761;BME280;47664;51.660;-0.100;2023-05-19T05:28:26;102039.99;;;11.33;54.74
61761;BME280;47664;51.660;-0.100;2023-05-19T05:30:53;102040.00;;;11.16;54.34
61761;BME280;47664;51.660;-0.100;2023-05-19T05:33:21;102041.51;;;11.82;53.48
61761;BME280;47664;51.660;-0.100;2023-05-19T05:35:49;102043.05;;;11.84;52.85
61761;BME280;47664;51.660;-0.100;2023-05-19T05:38:16;102044.77;;;10.98;52.95
61761;BME280;47664;51.660;-0.100;2023-05-19T05:40:43;102040.50;;;11.91;52.92
61761;BME280;47664;51.660;-0.100;2023-05-19T05:43:11;102037.30;;;11.73;52.69
61761;BME280;47664;51.660;-0.100;2023-05-19T05:50:58;102037.09;;;11.70;53.84
61761;BME280;47664;51.660;-0.100;2023-05-19T05:53:25;102031.81;;;10.51;52.80
61761;BME280;47664;51.660;-0.100;2023-05-19T05:55:58;102025.89;;;12.03;51.86
61761;BME280;47664;51.660;-0.100;2023-05-19T05:58:25;102025.45;;;12.02;51.51
61761;BME280;47664;51.660;-0.100;2023-05-19T06:00:52;102023.42;;;12.79;51.33
61761;BME280;47664;51.660;-0.100;2023-05-19T06:03:20;102020.53;;;12.52;50.84
61761;BME280;47664;51.660;-0.100;2023-05-19T06:05:48;102023.55;;;11.92;51.80
61761;BME280;47664;51.660;-0.100;2023-05-19T06:08:15;102020.72;;;10.95;52.85
61761;BME280;47664;51.660;-0.100;2023-05-19T06:10:42;102019.99;;;11.55;52.83
61761;BME280;47664;51.660;-0.100;2023-05-19T06:13:10;102023.28;;;11.94;52.11
61761;BME280;47664;51.660;-0.100;2023-05-19T06:15:38;102024.66;;;11.75;52.69
61761;BME280;47664;51.660;-0.100;2023-05-19T06:18:06;102028.30;;;11.10;52.48
61761;BME280;47664;51.660;-0.100;2023-05-19T06:20:34;102030.73;;;12.10;52.58
61761;BME280;47664;51.660;-0.100;2023-05-19T06:23:02;102030.89;;;11.97;52.23
61761;BME280;47664;51.660;-0.100;2023-05-19T06:25:29;102027.97;;;11.84;52.56
61761;BME280;47664;51.660;-0.100;2023-05-19T06:27:56;102027.46;;;11.96;53.90
61761;BME280;47664;51.660;-0.100;2023-05-19T06:30:25;102027.47;;;11.66;53.18
61761;BME280;47664;51.660;-0.100;2023-05-19T06:32:52;102028.30;;;11.83;53.89
61761;BME280;47664;51.660;-0.100;2023-05-19T06:35:19;102026.63;;;11.83;54.51
61761;BME280;47664;51.660;-0.100;2023-05-19T06:37:47;102021.00;;;11.92;54.30
61761;BME280;47664;51.660;-0.100;2023-05-19T06:40:15;102017.53;;;10.50;54.62
61761;BME280;47664;51.660;-0.100;2023-05-19T06:42:42;102013.19;;;11.49;55.14
61761;BME280;47664;51.660;-0.100;2023-05-19T06:45:10;102018.81;;;11.31;54.50
61761;BME280;47664;51.660;-0.100;2023-05-19T06:47:37;102017.73;;;11.42;54.69
61761;BME280;47664;51.660;-0.100;2023-05-19T06:50:06;102015.94;;;10.61;55.15
61761;BME280;47664;51.660;-0.100;2023-05-19T06:52:34;102010.03;;;11.03;54.46
61761;BME280;47664;51.660;-0.100;2023-05-19T06:55:02;102005.87;;;11.37;54.21
61761;BME280;47664;51.660;-0.100;2023-05-19T06:57:30;102010.65;;;11.86;53.97
61761;BME280;47664;51.660;-0.100;2023-05-19T06:59:58;102021.82;;;11.26;54.76
61761;BME280;47664;51.660;-0.100;2023-05-19T07:02:25;102028.54;;;11.60;53.61
61761;BME280;47664;51.660;-0.100;2023-05-19T07:04:55;102024.21;;;12.03;53.08
61761;BME280;47664;51.660;-0.100;2023-05-19T07:07:23;102022.90;;;11.46;52.89
61761;BME280;47664;51.660;-0.100;2023-05-19T07:09:50;102022.84;;;12.16;52.98
61761;BME280;47664;51.660;-0.100;2023-05-19T07:12:17;102028.21;;;11.81;52.73
61761;BME280;47664;51.660;-0.100;2023-05-19T07:14:45;102030.27;;;12.05;52.10
61761;BME280;47664;51.660;-0.100;2023-05-19T07:17:12;102027.87;;;11.46;52.74
61761;BME280;47664;51.660;-0.100;2023-05-19T07:19:39;102037.80;;;11.77;52.78
61761;BME280;47664;51.660;-0.100;2023-05-19T07:22:08;102051.87;;;11.18;52.41
61761;BME280;47664;51.660;-0.100;2023-05-19T07:24:35;102051.48;;;12.40;51.17
61761;BME280;47664;51.660;-0.100;2023-05-19T07:27:04;102056.02;;;12.30;50.82
61761;BME280;47664;51.660;-0.100;2023-05-19T07:29:31;102073.40;;;12.16;52.22
61761;BME280;47664;51.660;-0.100;2023-05-19T07:31:59;102074.89;;;11.45;53.18
61761;BME280;47664;51.660;-0.100;2023-05-19T07:34:27;102065.09;;;12.38;52.06
61761;BME280;47664;51.660;-0.100;2023-05-19T07:36:55;102076.75;;;12.47;52.27
61761;BME280;47664;51.660;-0.100;2023-05-19T07:39:22;102084.53;;;12.10;52.91
61761;BME280;47664;51.660;-0.100;2023-05-19T07:41:50;102078.36;;;12.29;52.70
61761;BME280;47664;51.660;-0.100;2023-05-19T07:44:18;102080.19;;;12.36;52.52
61761;BME280;47664;51.660;-0.100;2023-05-19T07:46:46;102077.37;;;12.69;52.03
61761;BME280;47664;51.660;-0.100;2023-05-19T07:49:14;102071.26;;;12.84;51.47
61761;BME280;47664;51.660;-0.100;2023-05-19T07:51:41;102068.39;;;12.83;51.81
61761;BME280;47664;51.660;-0.100;2023-05-19T07:54:08;102072.71;;;12.00;51.58
61761;BME280;47664;51.660;-0.100;2023-05-19T07:56:36;102078.58;;;13.23;50.50
61761;BME280;47664;51.660;-0.100;2023-05-19T07:59:04;102086.49;;;12.64;50.65
61761;BME280;47664;51.660;-0.100;2023-05-19T08:01:32;102091.88;;;13.27;50.58
61761;BME280;47664;51.660;-0.100;2023-05-19T08:03:59;102087.36;;;13.15;50.41
61761;BME280;47664;51.660;-0.100;2023-05-19T08:06:27;102078.47;;;13.34;50.94
61761;BME280;47664;51.660;-0.100;2023-05-19T08:08:55;102076.86;;;13.58;50.23
61761;BME280;47664;51.660;-0.100;2023-05-19T08:11:23;102071.35;;;13.35;50.20
61761;BME280;47664;51.660;-0.100;2023-05-19T08:13:50;102072.47;;;13.13;50.38
61761;BME280;47664;51.660;-0.100;2023-05-19T08:16:18;102071.59;;;12.86;50.63
61761;BME280;47664;51.660;-0.100;2023-05-19T08:18:45;102064.01;;;13.17;50.76
61761;BME280;47664;51.660;-0.100;2023-05-19T08:21:13;102068.18;;;13.27;50.65
61761;BME280;47664;51.660;-0.100;2023-05-19T08:23:40;102063.24;;;13.21;50.66
61761;BME280;47664;51.660;-0.100;2023-05-19T08:26:08;102064.44;;;12.39;50.44
61761;BME280;47664;51.660;-0.100;2023-05-19T08:28:36;102068.09;;;13.34;50.13
61761;BME280;47664;51.660;-0.100;2023-05-19T08:31:03;102082.90;;;12.94;49.82
61761;BME280;47664;51.660;-0.100;2023-05-19T08:33:30;102094.36;;;13.02;50.74
61761;BME280;47664;51.660;-0.100;2023-05-19T08:35:59;102096.61;;;12.89;50.91
61761;BME280;47664;51.660;-0.100;2023-05-19T08:38:26;102098.12;;;12.96;50.95
61761;BME280;47664;51.660;-0.100;2023-05-19T08:40:54;102097.75;;;13.62;50.75
61761;BME280;47664;51.660;-0.100;2023-05-19T08:43:22;102098.22;;;13.23;50.96
61761;BME280;47664;51.660;-0.100;2023-05-19T08:45:49;102088.36;;;13.27;51.05
61761;BME280;47664;51.660;-0.100;2023-05-19T08:48:17;102082.11;;;12.82;50.72
61761;BME280;47664;51.660;-0.100;2023-05-19T08:50:58;102078.83;;;13.36;49.77
61761;BME280;47664;51.660;-0.100;2023-05-19T08:53:34;102078.75;;;13.50;50.02
61761;BME280;47664;51.660;-0.100;2023-05-19T08:56:07;102072.62;;;12.55;49.75
61761;BME280;47664;51.660;-0.100;2023-05-19T08:58:37;102064.77;;;13.71;49.50
61761;BME280;47664;51.660;-0.100;2023-05-19T09:01:06;102065.04;;;13.13;49.90
61761;BME280;47664;51.660;-0.100;2023-05-19T09:03:34;102063.68;;;12.86;50.82
61761;BME280;47664;51.660;-0.100;2023-05-19T09:06:05;102061.97;;;12.99;51.61
61761;BME280;47664;51.660;-0.100;2023-05-19T09:08:32;102060.81;;;12.72;51.52
61761;BME280;47664;51.660;-0.100;2023-05-19T09:11:00;102059.40;;;12.78;51.72
61761;BME280;47664;51.660;-0.100;2023-05-19T09:13:27;102053.49;;;13.01;52.86
61761;BME280;47664;51.660;-0.100;2023-05-19T09:15:56;102053.32;;;12.96;52.93
61761;BME280;47664;51.660;-0.100;2023-05-19T09:18:25;102060.75;;;12.55;53.81
61761;BME280;47664;51.660;-0.100;2023-05-19T09:20:56;102072.63;;;12.91;52.97
61761;BME280;47664;51.660;-0.100;2023-05-19T09:23:26;102074.52;;;13.27;53.09
61761;BME280;47664;51.660;-0.100;2023-05-19T09:25:56;102074.54;;;13.42;52.45
61761;BME280;47664;51.660;-0.100;2023-05-19T09:28:25;102076.80;;;13.05;50.35
61761;BME280;47664;51.660;-0.100;2023-05-19T09:31:01;102070.41;;;13.99;49.29
61761;BME280;47664;51.660;-0.100;2023-05-19T09:33:30;102073.55;;;13.53;49.07
61761;BME280;47664;51.660;-0.100;2023-05-19T09:35:59;102070.86;;;13.33;49.60
61761;BME280;47664;51.660;-0.100;2023-05-19T09:38:26;102070.88;;;13.49;49.88
61761;BME280;47664;51.660;-0.100;2023-05-19T09:40:56;102069.77;;;13.37;49.67
61761;BME280;47664;51.660;-0.100;2023-05-19T09:43:26;102075.22;;;13.61;50.41
61761;BME280;47664;51.660;-0.100;2023-05-19T09:45:57;102065.74;;;13.43;51.18
61761;BME280;47664;51.660;-0.100;2023-05-19T09:48:25;102072.08;;;13.27;51.66
61761;BME280;47664;51.660;-0.100;2023-05-19T09:50:52;102076.89;;;12.84;51.90
61761;BME280;47664;51.660;-0.100;2023-05-19T09:53:20;102080.12;;;12.76;53.13
61761;BME280;47664;51.660;-0.100;2023-05-19T09:55:48;102070.54;;;13.03;52.37
61761;BME280;47664;51.660;-0.100;2023-05-19T09:58:16;102069.20;;;13.17;51.97
61761;BME280;47664;51.660;-0.100;2023-05-19T10:00:45;102070.84;;;13.53;51.37
61761;BME280;47664;51.660;-0.100;2023-05-19T10:03:15;102068.76;;;13.49;51.13
61761;BME280;47664;51.660;-0.100;2023-05-19T10:05:43;102068.77;;;13.41;50.72
61761;BME280;47664;51.660;-0.100;2023-05-19T10:08:11;102070.23;;;12.72;50.75
61761;BME280;47664;51.660;-0.100;2023-05-19T10:10:39;102066.55;;;13.13;51.63
61761;BME280;47664;51.660;-0.100;2023-05-19T10:13:07;102069.55;;;13.20;50.97
61761;BME280;47664;51.660;-0.100;2023-05-19T10:15:35;102070.07;;;14.18;49.71
61761;BME280;47664;51.660;-0.100;2023-05-19T10:18:04;102067.27;;;13.31;50.07
61761;BME280;47664;51.660;-0.100;2023-05-19T10:20:33;102065.31;;;13.91;51.04
61761;BME280;47664;51.660;-0.100;2023-05-19T10:23:02;102065.78;;;13.66;50.84
61761;BME280;47664;51.660;-0.100;2023-05-19T10:25:30;102070.49;;;14.32;50.03
61761;BME280;47664;51.660;-0.100;2023-05-19T10:28:04;102070.13;;;13.79;50.21
61761;BME280;47664;51.660;-0.100;2023-05-19T10:30:36;102059.12;;;14.72;48.88
61761;BME280;47664;51.660;-0.100;2023-05-19T10:33:06;102055.90;;;15.17;47.97
61761;BME280;47664;51.660;-0.100;2023-05-19T10:36:04;102052.26;;;15.29;47.53
61761;BME280;47664;51.660;-0.100;2023-05-19T10:38:40;102055.36;;;15.54;46.85
61761;BME280;47664;51.660;-0.100;2023-05-19T10:41:27;102062.58;;;15.62;46.11
61761;BME280;47664;51.660;-0.100;2023-05-19T10:44:07;102061.08;;;14.91;46.91
61761;BME280;47664;51.660;-0.100;2023-05-19T10:46:35;102060.09;;;15.36;46.72
61761;BME280;47664;51.660;-0.100;2023-05-19T10:49:02;102056.95;;;15.70;46.23
61761;BME280;47664;51.660;-0.100;2023-05-19T10:51:30;102054.26;;;16.23;45.25
61761;BME280;47664;51.660;-0.100;2023-05-19T10:54:01;102052.33;;;15.79;45.44
61761;BME280;47664;51.660;-0.100;2023-05-19T10:56:31;102050.18;;;15.72;45.29
61761;BME280;47664;51.660;-0.100;2023-05-19T10:58:59;102051.59;;;15.96;45.23
61761;BME280;47664;51.660;-0.100;2023-05-19T11:01:31;102044.85;;;15.83;45.46
61761;BME280;47664;51.660;-0.100;2023-05-19T11:04:05;102040.14;;;15.75;44.24
61761;BME280;47664;51.660;-0.100;2023-05-19T11:06:33;102038.43;;;15.73;44.46
61761;BME280;47664;51.660;-0.100;2023-05-19T11:09:11;102036.86;;;15.69;45.37
61761;BME280;47664;51.660;-0.100;2023-05-19T11:11:47;102036.26;;;15.29;45.07
61761;BME280;47664;51.660;-0.100;2023-05-19T11:14:17;102037.40;;;14.80;46.03
61761;BME280;47664;51.660;-0.100;2023-05-19T11:16:46;102032.97;;;15.52;45.23
61761;BME280;47664;51.660;-0.100;2023-05-19T11:19:19;102034.42;;;15.69;45.03
61761;BME280;47664;51.660;-0.100;2023-05-19T11:21:52;102030.56;;;15.83;44.20
61761;BME280;47664;51.660;-0.100;2023-05-19T11:24:37;102029.84;;;15.38;45.11
61761;BME280;47664;51.660;-0.100;2023-05-19T11:27:24;102024.88;;;15.30;45.47
61761;BME280;47664;51.660;-0.100;2023-05-19T11:29:52;102028.40;;;14.76;46.50
61761;BME280;47664;51.660;-0.100;2023-05-19T11:32:20;102026.03;;;15.21;46.83
61761;BME280;47664;51.660;-0.100;2023-05-19T11:34:49;102028.33;;;15.01;45.59
61761;BME280;47664;51.660;-0.100;2023-05-19T11:37:17;102028.34;;;15.43;46.06
61761;BME280;47664;51.660;-0.100;2023-05-19T11:39:45;102024.72;;;15.69;46.11
61761;BME280;47664;51.660;-0.100;2023-05-19T11:42:13;102022.31;;;15.15;46.01
61761;BME280;47664;51.660;-0.100;2023-05-19T11:44:42;102018.41;;;15.37;46.12
61761;BME280;47664;51.660;-0.100;2023-05-19T11:47:10;102017.59;;;15.78;45.03
61761;BME280;47664;51.660;-0.100;2023-05-19T11:49:37;102012.71;;;15.72;45.05
61761;BME280;47664;51.660;-0.100;2023-05-19T11:52:06;102009.97;;;15.49;44.81
61761;BME280;47664;51.660;-0.100;2023-05-19T11:54:34;102008.60;;;16.01;45.26
61761;BME280;47664;51.660;-0.100;2023-05-19T11:57:03;102005.43;;;16.21;43.73
61761;BME280;47664;51.660;-0.100;2023-05-19T11:59:31;102000.27;;;15.67;44.73
61761;BME280;47664;51.660;-0.100;2023-05-19T12:02:01;101995.90;;;14.94;45.54
61761;BME280;47664;51.660;-0.100;2023-05-19T12:04:29;101994.87;;;15.34;45.24
61761;BME280;47664;51.660;-0.100;2023-05-19T12:06:56;101990.69;;;15.42;45.04
61761;BME280;47664;51.660;-0.100;2023-05-19T12:09:24;101989.03;;;15.76;44.42
61761;BME280;47664;51.660;-0.100;2023-05-19T12:11:55;101990.14;;;16.16;43.37
61761;BME280;47664;51.660;-0.100;2023-05-19T12:14:24;101989.57;;;15.72;43.81
61761;BME280;47664;51.660;-0.100;2023-05-19T12:16:51;101987.54;;;16.26;44.41
61761;BME280;47664;51.660;-0.100;2023-05-19T12:19:22;101985.62;;;16.41;44.42
61761;BME280;47664;51.660;-0.100;2023-05-19T12:21:50;101985.48;;;16.42;44.06
61761;BME280;47664;51.660;-0.100;2023-05-19T12:24:18;101984.81;;;16.29;44.19
61761;BME280;47664;51.660;-0.100;2023-05-19T12:26:46;101982.89;;;16.47;44.64
61761;BME280;47664;51.660;-0.100;2023-05-19T12:29:14;101981.87;;;16.74;43.91
61761;BME280;47664;51.660;-0.100;2023-05-19T12:31:45;101985.02;;;16.57;43.56
61761;BME280;47664;51.660;-0.100;2023-05-19T12:34:13;101983.25;;;16.62;43.23
61761;BME280;47664;51.660;-0.100;2023-05-19T12:36:41;101983.72;;;16.71;43.85
61761;BME280;47664;51.660;-0.100;2023-05-19T12:39:08;101981.09;;;16.62;43.99
61761;BME280;47664;51.660;-0.100;2023-05-19T12:41:36;101985.55;;;16.65;43.69
61761;BME280;47664;51.660;-0.100;2023-05-19T12:44:14;101981.87;;;15.97;42.32
61761;BME280;47664;51.660;-0.100;2023-05-19T12:46:42;101979.95;;;16.66;42.24
61761;BME280;47664;51.660;-0.100;2023-05-19T12:49:10;101981.37;;;17.11;42.18
61761;BME280;47664;51.660;-0.100;2023-05-19T12:51:38;101986.72;;;17.34;41.57
61761;BME280;47664;51.660;-0.100;2023-05-19T12:54:07;101983.90;;;16.25;41.62
61761;BME280;47664;51.660;-0.100;2023-05-19T12:56:34;101977.48;;;16.85;41.82